Time;durP1;ratioP1;P1;durP2;ratioP2;P2;SDS_P1;SDS_P2;PMS_P1;PMS_P2;Temp;Humidity;BMP_temperature;BMP_pressure;BME280_temperature;BME280_humidity;BME280_pressure;Samples;Min_cycle;Max_cycle;Signal;HPM_P1;HPM_P2
2021/12/17 00:04:59;;;;;;;66.72;12.25;;;;;;;;;;4967639;28;20037;-59
2021/12/17 00:07:28;;;;;;;54.20;10.73;;;;;;;;;;4986633;28;20673;-59
2021/12/17 00:09:57;;;;;;;62.00;11.38;;;;;;;;;;4970094;28;20030;-58
2021/12/17 00:12:23;;;;;;;54.20;11.85;;;;;;;;;;4985881;28;20113;-58
2021/12/17 00:14:50;;;;;;;60.28;11.38;;;;;;;;;;4986000;28;20108;-58
2021/12/17 00:17:20;;;;;;;53.35;11.20;;;;;;;;;;4985461;28;20038;-58
2021/12/17 00:40:22;;;;;;;61.38;11.73;;;;;;;;;;4983961;28;20042;-59
2021/12/17 00:51:02;;;;;;;32.28;7.55;;;;;;;;;;4977477;28;20120;-58
2021/12/17 00:53:24;;;;;;;32.40;6.95;;;;;;;;;;4984946;28;20513;-58
2021/12/17 00:55:52;;;;;;;25.60;6.22;;;;;;;;;;4983871;28;20080;-58
2021/12/17 00:58:20;;;;;;;25.63;6.35;;;;;;;;;;4984558;28;20046;-58
2021/12/17 01:00:48;;;;;;;21.05;5.68;;;;;;;;;;4985987;28;20096;-58
2021/12/17 01:03:18;;;;;;;21.33;5.72;;;;;;;;;;4984122;28;20136;-59
2021/12/17 01:05:44;;;;;;;16.50;4.45;;;;;;;;;;4982768;28;20065;-57
2021/12/17 01:08:14;;;;;;;13.27;4.60;;;;;;;;;;4984731;28;20033;-59
2021/12/17 01:10:46;;;;;;;12.77;3.60;;;;;;;;;;4982468;28;20018;-58
2021/12/17 01:13:14;;;;;;;11.50;3.13;;;;;;;;;;4984558;28;20033;-58
2021/12/17 01:15:42;;;;;;;10.13;2.90;;;;;;;;;;4982196;28;20037;-58
2021/12/17 01:18:16;;;;;;;10.90;3.53;;;;;;;;;;4987085;28;20033;-58
2021/12/17 01:36:31;;;;;;;10.85;2.95;;;;;;;;;;4982633;28;20041;-59
2021/12/17 01:44:18;;;;;;;7.13;2.17;;;;;;;;;;4985001;28;20576;-57
2021/12/17 01:46:50;;;;;;;8.00;2.63;;;;;;;;;;4999987;28;20030;-58
2021/12/17 02:00:01;;;;;;;7.20;2.80;;;;;;;;;;4983394;28;20026;-58
2021/12/17 02:02:30;;;;;;;3.83;2.42;;;;;;;;;;4983296;28;20036;-60
2021/12/17 02:04:55;;;;;;;10.50;2.20;;;;;;;;;;4984201;28;20056;-59
2021/12/17 02:07:21;;;;;;;7.30;2.65;;;;;;;;;;4998721;28;20041;-57
2021/12/17 02:29:05;;;;;;;12.40;2.75;;;;;;;;;;4982429;28;21261;-62
2021/12/17 02:31:33;;;;;;;12.02;2.55;;;;;;;;;;4984588;28;20103;-59
2021/12/17 02:34:08;;;;;;;8.73;2.70;;;;;;;;;;4981053;28;20037;-59
2021/12/17 02:36:36;;;;;;;12.38;3.03;;;;;;;;;;4984059;28;20029;-59
2021/12/17 02:47:13;;;;;;;7.45;2.60;;;;;;;;;;4982289;28;20777;-58
2021/12/17 02:49:41;;;;;;;11.95;3.17;;;;;;;;;;4985548;28;20034;-58
2021/12/17 02:52:09;;;;;;;9.95;2.97;;;;;;;;;;4987180;28;20033;-60
2021/12/17 02:54:37;;;;;;;10.10;3.33;;;;;;;;;;4970950;28;20923;-59
2021/12/17 02:57:04;;;;;;;12.00;3.88;;;;;;;;;;4987395;28;20498;-57
2021/12/17 02:59:31;;;;;;;14.18;3.33;;;;;;;;;;4986338;28;20769;-57
2021/12/17 03:01:57;;;;;;;16.10;3.67;;;;;;;;;;4989950;28;20046;-58
2021/12/17 03:04:27;;;;;;;10.57;3.15;;;;;;;;;;4985710;28;20036;-57
2021/12/17 03:06:56;;;;;;;10.10;3.22;;;;;;;;;;4986885;28;20473;-58
2021/12/17 03:09:35;;;;;;;9.15;3.08;;;;;;;;;;4986444;28;20033;-59
2021/12/17 03:12:00;;;;;;;15.65;3.28;;;;;;;;;;4986576;28;20088;-58
2021/12/17 03:14:28;;;;;;;8.73;2.90;;;;;;;;;;4987073;28;20433;-59
2021/12/17 03:17:06;;;;;;;8.45;3.15;;;;;;;;;;4986140;28;22057;-58
2021/12/17 03:25:02;;;;;;;10.77;3.90;;;;;;;;;;4987179;28;20038;-58
2021/12/17 03:27:32;;;;;;;12.50;3.47;;;;;;;;;;4985681;28;20026;-59
2021/12/17 03:29:58;;;;;;;7.20;2.83;;;;;;;;;;4988404;28;20064;-59
2021/12/17 03:32:23;;;;;;;8.55;3.38;;;;;;;;;;4987991;28;20034;-59
2021/12/17 03:34:50;;;;;;;11.00;3.75;;;;;;;;;;4988327;28;20108;-59
2021/12/17 03:37:20;;;;;;;12.23;3.13;;;;;;;;;;4982637;28;20034;-58
2021/12/17 03:39:51;;;;;;;8.98;3.10;;;;;;;;;;4991510;28;20030;-58
2021/12/17 03:42:18;;;;;;;9.25;3.60;;;;;;;;;;4987841;28;20954;-61
2021/12/17 03:44:49;;;;;;;13.55;3.70;;;;;;;;;;4988755;28;20029;-59
2021/12/17 03:47:16;;;;;;;10.88;3.03;;;;;;;;;;4983124;28;20034;-59
2021/12/17 03:49:43;;;;;;;9.50;3.22;;;;;;;;;;4986892;28;20061;-58
2021/12/17 03:52:08;;;;;;;7.80;2.95;;;;;;;;;;4987761;28;20044;-59
2021/12/17 03:58:12;;;;;;;7.55;3.22;;;;;;;;;;4987143;28;20149;-59
2021/12/17 04:00:41;;;;;;;9.40;3.10;;;;;;;;;;4971918;28;20065;-57
2021/12/17 04:03:07;;;;;;;16.80;3.33;;;;;;;;;;4987908;28;20029;-59
2021/12/17 04:05:32;;;;;;;12.77;3.53;;;;;;;;;;4987246;28;20030;-59
2021/12/17 04:08:01;;;;;;;11.77;3.78;;;;;;;;;;4985979;28;20042;-59
2021/12/17 04:10:38;;;;;;;14.63;4.35;;;;;;;;;;4988397;28;20093;-59
2021/12/17 04:16:40;;;;;;;15.95;5.07;;;;;;;;;;4986361;28;20749;-59
2021/12/17 04:19:06;;;;;;;16.38;5.93;;;;;;;;;;4984553;28;20030;-60
2021/12/17 04:21:34;;;;;;;20.33;6.88;;;;;;;;;;5002190;28;20509;-59
2021/12/17 04:24:02;;;;;;;22.08;6.93;;;;;;;;;;4997345;28;20061;-57
2021/12/17 04:26:29;;;;;;;20.35;6.40;;;;;;;;;;5000195;28;20038;-59
2021/12/17 04:29:00;;;;;;;21.10;6.97;;;;;;;;;;4970209;28;20045;-59
2021/12/17 04:31:30;;;;;;;19.60;6.45;;;;;;;;;;4983283;28;20030;-59
2021/12/17 04:33:58;;;;;;;24.17;6.47;;;;;;;;;;4969087;28;20042;-59
2021/12/17 04:36:32;;;;;;;18.98;6.95;;;;;;;;;;4983658;28;20069;-60
2021/12/17 04:38:59;;;;;;;22.58;6.55;;;;;;;;;;4984311;28;20053;-59
2021/12/17 04:42:15;;;;;;;24.15;7.80;;;;;;;;;;4985743;28;20038;-59
2021/12/17 04:57:58;;;;;;;18.45;6.90;;;;;;;;;;4986377;28;20061;-59
2021/12/17 05:00:26;;;;;;;21.88;7.75;;;;;;;;;;4985836;28;20081;-59
2021/12/17 05:02:54;;;;;;;22.85;7.82;;;;;;;;;;4984565;28;20026;-59
2021/12/17 05:05:31;;;;;;;22.15;7.43;;;;;;;;;;4984026;28;20188;-59
2021/12/17 05:08:05;;;;;;;22.70;8.32;;;;;;;;;;4978868;28;20037;-59
2021/12/17 05:18:44;;;;;;;20.95;7.20;;;;;;;;;;4984914;28;20099;-60
2021/12/17 05:21:14;;;;;;;26.60;7.88;;;;;;;;;;4984561;28;20033;-61
2021/12/17 05:23:42;;;;;;;21.63;6.82;;;;;;;;;;4986814;28;20481;-59
2021/12/17 05:26:17;;;;;;;26.00;7.47;;;;;;;;;;4984018;28;20089;-58
2021/12/17 05:28:45;;;;;;;21.67;6.80;;;;;;;;;;4985798;28;20040;-60
2021/12/17 05:31:11;;;;;;;29.98;8.15;;;;;;;;;;4987778;28;20026;-59
2021/12/17 05:33:36;;;;;;;20.50;7.00;;;;;;;;;;5003871;28;20657;-58
2021/12/17 05:36:06;;;;;;;26.50;7.97;;;;;;;;;;4970222;28;20030;-58
2021/12/17 05:38:34;;;;;;;26.02;7.07;;;;;;;;;;4987957;28;20053;-59
2021/12/17 05:41:02;;;;;;;23.38;7.15;;;;;;;;;;4990107;28;20052;-58
2021/12/17 05:43:28;;;;;;;27.02;7.88;;;;;;;;;;4982621;28;20045;-58
2021/12/17 05:48:27;;;;;;;27.55;7.78;;;;;;;;;;4984585;28;20073;-58
2021/12/17 05:50:57;;;;;;;26.35;7.45;;;;;;;;;;4987646;28;20017;-60
2021/12/17 05:53:22;;;;;;;21.75;6.72;;;;;;;;;;4991026;28;20909;-59
2021/12/17 05:55:50;;;;;;;27.60;6.75;;;;;;;;;;4986028;28;20036;-58
2021/12/17 05:58:19;;;;;;;23.20;6.70;;;;;;;;;;4986541;28;20036;-59
2021/12/17 06:00:52;;;;;;;20.45;6.80;;;;;;;;;;4985382;28;20029;-58
2021/12/17 06:03:20;;;;;;;26.08;7.07;;;;;;;;;;4984038;28;22037;-60
2021/12/17 06:05:45;;;;;;;27.08;6.63;;;;;;;;;;4981736;28;20138;-58
2021/12/17 06:08:13;;;;;;;22.13;6.40;;;;;;;;;;4986123;28;20092;-59
2021/12/17 06:10:39;;;;;;;34.55;6.82;;;;;;;;;;4992001;28;20026;-59
2021/12/17 06:13:05;;;;;;;19.70;6.32;;;;;;;;;;5002301;28;20056;-59
2021/12/17 06:15:32;;;;;;;19.80;6.75;;;;;;;;;;4987493;28;20084;-58
2021/12/17 06:17:58;;;;;;;20.98;5.65;;;;;;;;;;4986168;28;20088;-59
2021/12/17 06:20:26;;;;;;;25.70;7.20;;;;;;;;;;4968426;28;22221;-59
2021/12/17 06:22:56;;;;;;;29.48;7.35;;;;;;;;;;4985531;28;22116;-58
2021/12/17 06:28:57;;;;;;;28.10;6.20;;;;;;;;;;4986005;28;20176;-58
2021/12/17 06:31:28;;;;;;;27.80;6.63;;;;;;;;;;4985651;28;20440;-58
2021/12/17 06:33:58;;;;;;;20.13;6.80;;;;;;;;;;4971380;28;20217;-60
2021/12/17 06:36:26;;;;;;;28.75;6.88;;;;;;;;;;4986698;28;20056;-60
2021/12/17 06:38:54;;;;;;;21.13;6.18;;;;;;;;;;4987012;28;20054;-60
2021/12/17 06:41:20;;;;;;;26.23;6.20;;;;;;;;;;4978962;28;20041;-60
2021/12/17 06:43:50;;;;;;;31.75;7.05;;;;;;;;;;4985571;28;20579;-59
2021/12/17 06:49:27;;;;;;;25.20;6.55;;;;;;;;;;4971847;28;20047;-60
2021/12/17 06:55:15;;;;;;;27.92;7.50;;;;;;;;;;4984584;28;20231;-58
2021/12/17 07:06:18;;;;;;;26.60;7.15;;;;;;;;;;4986302;28;20046;-59
2021/12/17 07:32:45;;;;;;;16.13;6.07;;;;;;;;;;4984127;28;20040;-59
2021/12/17 07:40:34;;;;;;;22.50;6.50;;;;;;;;;;4990017;28;20021;-59
2021/12/17 07:43:02;;;;;;;23.73;7.63;;;;;;;;;;4988254;28;21937;-59
2021/12/17 07:45:32;;;;;;;18.60;6.45;;;;;;;;;;4971354;28;20066;-57
2021/12/17 07:47:57;;;;;;;21.90;7.00;;;;;;;;;;4989228;28;20516;-59
2021/12/17 07:50:25;;;;;;;22.67;6.13;;;;;;;;;;4990387;28;20054;-58
2021/12/17 07:52:53;;;;;;;21.40;6.88;;;;;;;;;;4990975;28;20149;-58
2021/12/17 07:55:20;;;;;;;21.10;6.13;;;;;;;;;;4990658;28;20033;-59
2021/12/17 07:57:48;;;;;;;20.65;5.50;;;;;;;;;;5005537;28;20048;-58
2021/12/17 08:00:16;;;;;;;18.10;6.95;;;;;;;;;;4986439;28;20029;-59
2021/12/17 08:02:42;;;;;;;18.85;6.97;;;;;;;;;;4986778;28;20033;-59
2021/12/17 08:05:12;;;;;;;18.52;5.90;;;;;;;;;;4989525;28;20029;-59
2021/12/17 08:07:37;;;;;;;17.90;6.30;;;;;;;;;;5004500;28;20701;-59
2021/12/17 08:10:05;;;;;;;15.05;6.03;;;;;;;;;;4979290;28;20037;-59
2021/12/17 08:12:34;;;;;;;15.15;6.28;;;;;;;;;;4989059;28;20049;-59
2021/12/17 08:15:07;;;;;;;22.40;7.95;;;;;;;;;;4991759;28;20121;-60
2021/12/17 08:26:07;;;;;;;19.35;7.40;;;;;;;;;;4987654;28;20867;-59
2021/12/17 08:31:29;;;;;;;20.85;6.63;;;;;;;;;;4965497;28;20176;-59
2021/12/17 08:33:58;;;;;;;26.55;7.38;;;;;;;;;;4987710;28;20089;-59
2021/12/17 08:36:28;;;;;;;21.27;7.28;;;;;;;;;;4970292;28;20493;-60
2021/12/17 08:38:55;;;;;;;21.00;7.65;;;;;;;;;;4989472;28;20041;-60
2021/12/17 08:41:22;;;;;;;16.80;6.53;;;;;;;;;;5004326;28;20025;-60
2021/12/17 08:43:52;;;;;;;24.77;6.75;;;;;;;;;;4987437;28;20116;-60
2021/12/17 08:46:22;;;;;;;19.13;7.90;;;;;;;;;;4985718;28;21385;-61
2021/12/17 08:48:48;;;;;;;22.80;7.22;;;;;;;;;;4983325;28;20444;-60
2021/12/17 08:51:15;;;;;;;17.30;6.55;;;;;;;;;;4986908;28;20045;-60
2021/12/17 08:53:43;;;;;;;14.43;6.30;;;;;;;;;;4987345;28;20072;-61
2021/12/17 08:56:15;;;;;;;16.98;6.13;;;;;;;;;;4988243;28;20034;-63
2021/12/17 08:58:40;;;;;;;15.80;5.75;;;;;;;;;;4988233;28;20033;-59
2021/12/17 09:01:05;;;;;;;20.98;6.88;;;;;;;;;;4983862;28;20030;-59
2021/12/17 09:03:32;;;;;;;20.45;6.57;;;;;;;;;;4986723;28;20470;-61
2021/12/17 09:05:57;;;;;;;20.55;6.75;;;;;;;;;;4997847;28;20034;-60
2021/12/17 09:08:24;;;;;;;15.75;6.63;;;;;;;;;;4978527;28;20046;-58
2021/12/17 09:10:52;;;;;;;26.67;6.97;;;;;;;;;;4959732;28;20046;-60
2021/12/17 09:13:17;;;;;;;18.73;5.80;;;;;;;;;;4987654;28;20152;-60
2021/12/17 09:15:45;;;;;;;15.20;6.35;;;;;;;;;;4976298;28;20041;-60
2021/12/17 09:18:13;;;;;;;19.10;6.80;;;;;;;;;;4988400;28;20077;-60
2021/12/17 09:20:41;;;;;;;19.50;6.72;;;;;;;;;;4969631;28;20037;-61
2021/12/17 09:23:09;;;;;;;16.35;5.22;;;;;;;;;;4988216;28;20169;-59
2021/12/17 09:25:36;;;;;;;18.85;4.97;;;;;;;;;;4982428;28;20048;-60
2021/12/17 09:28:04;;;;;;;19.88;5.72;;;;;;;;;;4987330;28;20060;-60
2021/12/17 09:30:34;;;;;;;14.77;5.57;;;;;;;;;;4986085;28;20030;-60
2021/12/17 09:32:59;;;;;;;14.35;5.40;;;;;;;;;;4986847;28;20026;-59
2021/12/17 09:35:26;;;;;;;17.52;5.55;;;;;;;;;;5003388;28;20465;-59
2021/12/17 09:37:54;;;;;;;15.23;4.78;;;;;;;;;;4969499;28;20459;-60
2021/12/17 09:40:22;;;;;;;14.15;5.28;;;;;;;;;;4983161;28;20128;-60
2021/12/17 09:42:48;;;;;;;11.27;4.95;;;;;;;;;;4986839;28;20910;-60
2021/12/17 09:45:14;;;;;;;10.73;4.32;;;;;;;;;;4986361;28;20037;-60
2021/12/17 09:47:40;;;;;;;12.25;4.80;;;;;;;;;;4985436;28;20119;-60
2021/12/17 09:50:10;;;;;;;9.70;4.80;;;;;;;;;;4982661;28;20026;-60
2021/12/17 09:52:38;;;;;;;15.00;5.43;;;;;;;;;;4987171;28;20037;-59
2021/12/17 09:55:07;;;;;;;10.70;4.32;;;;;;;;;;4986689;28;20034;-59
2021/12/17 09:57:36;;;;;;;14.90;4.75;;;;;;;;;;4975079;28;20022;-59
2021/12/17 10:00:10;;;;;;;15.55;5.25;;;;;;;;;;4985708;28;20019;-59
2021/12/17 10:02:38;;;;;;;13.02;4.70;;;;;;;;;;4985613;28;20032;-59
2021/12/17 10:05:05;;;;;;;14.45;5.18;;;;;;;;;;5001644;28;21940;-59
2021/12/17 10:07:31;;;;;;;18.65;5.20;;;;;;;;;;4986576;28;20117;-61
2021/12/17 10:10:00;;;;;;;19.52;5.30;;;;;;;;;;4985667;28;20076;-59
2021/12/17 10:12:28;;;;;;;14.15;5.03;;;;;;;;;;4977715;28;20034;-60
2021/12/17 10:15:00;;;;;;;10.48;5.18;;;;;;;;;;4964276;28;20028;-58
2021/12/17 10:17:27;;;;;;;13.25;5.10;;;;;;;;;;4985151;28;20047;-60
2021/12/17 10:19:56;;;;;;;10.27;4.32;;;;;;;;;;4983425;28;20721;-62
2021/12/17 10:22:31;;;;;;;11.63;4.93;;;;;;;;;;4984725;28;20556;-59
2021/12/17 10:24:58;;;;;;;15.52;4.65;;;;;;;;;;4968183;28;20037;-59
2021/12/17 10:27:28;;;;;;;12.45;4.38;;;;;;;;;;4978146;28;20038;-59
2021/12/17 10:29:56;;;;;;;10.50;4.95;;;;;;;;;;4986422;28;20037;-58
2021/12/17 10:32:23;;;;;;;10.23;4.00;;;;;;;;;;4982829;28;20041;-59
2021/12/17 10:35:03;;;;;;;16.13;4.75;;;;;;;;;;4984663;28;20033;-62
2021/12/17 10:37:35;;;;;;;8.55;3.90;;;;;;;;;;4974588;28;20180;-59
2021/12/17 10:40:13;;;;;;;8.88;4.47;;;;;;;;;;4982979;28;20038;-59
2021/12/17 10:42:49;;;;;;;8.48;3.80;;;;;;;;;;4983175;28;20402;-59
2021/12/17 10:45:25;;;;;;;19.17;3.95;;;;;;;;;;4985495;28;20033;-58
2021/12/17 10:48:03;;;;;;;9.53;4.07;;;;;;;;;;4987423;28;20096;-58
2021/12/17 10:50:31;;;;;;;10.02;3.85;;;;;;;;;;4990098;28;20033;-58
2021/12/17 10:52:58;;;;;;;18.70;4.18;;;;;;;;;;4985964;28;20034;-59
2021/12/17 10:55:24;;;;;;;9.18;3.83;;;;;;;;;;4980736;28;20967;-59
2021/12/17 10:57:57;;;;;;;5.20;3.28;;;;;;;;;;4984869;28;20140;-58
2021/12/17 11:00:23;;;;;;;6.35;3.10;;;;;;;;;;5002114;28;20045;-60
2021/12/17 11:02:49;;;;;;;7.00;3.30;;;;;;;;;;4985005;28;20058;-59
2021/12/17 11:05:19;;;;;;;5.57;3.15;;;;;;;;;;4987101;28;20509;-58
2021/12/17 11:07:48;;;;;;;4.82;2.38;;;;;;;;;;4987875;28;20041;-59
2021/12/17 11:10:23;;;;;;;6.72;3.35;;;;;;;;;;4986265;28;20113;-58
2021/12/17 11:12:51;;;;;;;;;;;;;;;;;;5002638;28;20044;-58
2021/12/17 11:15:24;;;;;;;3.80;2.22;;;;;;;;;;4988213;28;19917;-60
2021/12/17 11:17:54;;;;;;;4.35;2.90;;;;;;;;;;4988946;28;20325;-59
2021/12/17 11:20:24;;;;;;;4.65;2.63;;;;;;;;;;4989497;28;20133;-60
2021/12/17 11:22:53;;;;;;;5.32;3.22;;;;;;;;;;4988628;28;20062;-58
2021/12/17 11:25:23;;;;;;;4.47;3.03;;;;;;;;;;4987294;28;20079;-59
2021/12/17 11:27:54;;;;;;;4.05;2.67;;;;;;;;;;4990059;28;20021;-58
2021/12/17 11:30:23;;;;;;;5.60;2.80;;;;;;;;;;4987841;28;20041;-59
2021/12/17 11:32:49;;;;;;;7.10;2.75;;;;;;;;;;4971005;28;20021;-60
2021/12/17 11:35:26;;;;;;;8.65;2.90;;;;;;;;;;4986210;28;20029;-58
2021/12/17 11:38:08;;;;;;;13.30;3.05;;;;;;;;;;4990111;28;20061;-58
2021/12/17 11:40:52;;;;;;;5.25;2.95;;;;;;;;;;4990338;28;20079;-59
2021/12/17 11:43:34;;;;;;;6.95;2.60;;;;;;;;;;4989513;28;20052;-59
2021/12/17 11:46:01;;;;;;;7.60;2.50;;;;;;;;;;4988230;28;20117;-58
2021/12/17 11:48:30;;;;;;;11.63;3.28;;;;;;;;;;4988054;28;20068;-59
2021/12/17 11:51:10;;;;;;;7.80;3.17;;;;;;;;;;4985980;28;20092;-59
2021/12/17 11:53:58;;;;;;;7.80;2.85;;;;;;;;;;4962944;28;20527;-59
2021/12/17 11:56:45;;;;;;;22.80;11.02;;;;;;;;;;4979604;28;20053;-60
2021/12/17 11:59:33;;;;;;;6.38;3.53;;;;;;;;;;4989378;28;20042;-60
2021/12/17 12:02:01;;;;;;;10.82;3.00;;;;;;;;;;4988857;28;20038;-59
2021/12/17 12:04:33;;;;;;;4.60;2.60;;;;;;;;;;4970624;28;20048;-59
2021/12/17 12:07:06;;;;;;;6.95;3.58;;;;;;;;;;4986813;28;20042;-59
2021/12/17 12:12:42;;;;;;;9.85;3.38;;;;;;;;;;4984456;28;20037;-59
2021/12/17 12:15:17;;;;;;;8.38;3.30;;;;;;;;;;4994369;28;20065;-59
2021/12/17 12:18:03;;;;;;;5.07;3.33;;;;;;;;;;4986801;28;20030;-60
2021/12/17 12:20:48;;;;;;;8.85;3.28;;;;;;;;;;4986751;28;20125;-59
2021/12/17 12:23:17;;;;;;;6.72;3.15;;;;;;;;;;4983236;28;20117;-60
2021/12/17 12:25:44;;;;;;;6.45;3.85;;;;;;;;;;4986622;28;20428;-59
2021/12/17 12:28:12;;;;;;;6.72;3.33;;;;;;;;;;4962659;28;20029;-58
2021/12/17 12:30:41;;;;;;;7.63;3.40;;;;;;;;;;4985613;28;20030;-59
2021/12/17 12:33:08;;;;;;;6.57;3.65;;;;;;;;;;4977775;28;20481;-59
2021/12/17 12:35:36;;;;;;;6.05;3.53;;;;;;;;;;4985582;28;20070;-59
2021/12/17 12:38:19;;;;;;;6.70;4.00;;;;;;;;;;4985302;28;20033;-60
2021/12/17 12:40:53;;;;;;;6.97;3.88;;;;;;;;;;4979258;28;20037;-59
2021/12/17 12:43:25;;;;;;;5.20;3.50;;;;;;;;;;4988117;28;20101;-59
2021/12/17 12:45:51;;;;;;;9.07;3.40;;;;;;;;;;4987984;28;20073;-59
2021/12/17 12:48:28;;;;;;;7.85;3.63;;;;;;;;;;4988180;28;20053;-60
2021/12/17 12:51:11;;;;;;;6.13;3.40;;;;;;;;;;4987484;28;20368;-60
2021/12/17 12:53:45;;;;;;;8.18;3.47;;;;;;;;;;4986733;28;20643;-60
2021/12/17 12:56:15;;;;;;;8.68;3.83;;;;;;;;;;4988562;28;20109;-59
2021/12/17 12:58:46;;;;;;;8.57;3.97;;;;;;;;;;4977459;28;20513;-59
2021/12/17 13:01:13;;;;;;;9.98;4.53;;;;;;;;;;4984397;28;20715;-59
2021/12/17 13:03:39;;;;;;;9.30;5.03;;;;;;;;;;4984825;28;20129;-60
2021/12/17 13:06:05;;;;;;;10.25;5.90;;;;;;;;;;4952421;28;20042;-59
2021/12/17 13:08:33;;;;;;;21.17;9.63;;;;;;;;;;5004436;28;20057;-60
2021/12/17 13:11:04;;;;;;;13.80;6.47;;;;;;;;;;4987161;28;20030;-60
2021/12/17 13:13:50;;;;;;;6.78;3.70;;;;;;;;;;4987806;28;20026;-59
2021/12/17 13:26:36;;;;;;;10.68;3.33;;;;;;;;;;4984519;28;20061;-59
2021/12/17 13:29:05;;;;;;;6.65;3.40;;;;;;;;;;4985762;28;20026;-59
2021/12/17 13:31:49;;;;;;;7.97;3.92;;;;;;;;;;4986516;28;20467;-59
2021/12/17 13:34:22;;;;;;;6.50;3.47;;;;;;;;;;4987151;28;20089;-59
2021/12/17 13:36:50;;;;;;;6.80;3.20;;;;;;;;;;4984985;28;20045;-59
2021/12/17 13:39:19;;;;;;;7.05;4.05;;;;;;;;;;4961981;28;20033;-59
2021/12/17 13:41:46;;;;;;;8.48;4.07;;;;;;;;;;4987453;28;20062;-60
2021/12/17 13:44:34;;;;;;;10.20;4.10;;;;;;;;;;4987000;28;21939;-59
2021/12/17 13:47:19;;;;;;;7.15;3.75;;;;;;;;;;4987810;28;20493;-60
2021/12/17 13:49:46;;;;;;;7.68;4.45;;;;;;;;;;4960698;28;20149;-59
2021/12/17 13:52:13;;;;;;;6.78;3.55;;;;;;;;;;4983751;28;20124;-60
2021/12/17 13:54:44;;;;;;;14.10;4.38;;;;;;;;;;4984489;28;20038;-59
2021/12/17 13:57:14;;;;;;;10.13;3.90;;;;;;;;;;4986106;28;20052;-59
2021/12/17 13:59:40;;;;;;;10.27;4.68;;;;;;;;;;4976878;28;20033;-58
2021/12/17 14:02:20;;;;;;;7.65;4.10;;;;;;;;;;4961612;28;20042;-58
2021/12/17 14:04:58;;;;;;;11.50;4.43;;;;;;;;;;4984837;28;20045;-60
2021/12/17 14:07:28;;;;;;;10.90;4.60;;;;;;;;;;4987007;28;20037;-59
2021/12/17 14:09:58;;;;;;;11.70;4.82;;;;;;;;;;4985687;28;20042;-60
2021/12/17 14:12:37;;;;;;;8.10;4.35;;;;;;;;;;4985474;28;20029;-59
2021/12/17 14:15:06;;;;;;;7.38;4.75;;;;;;;;;;4986288;28;20033;-59
2021/12/17 14:17:38;;;;;;;9.13;5.07;;;;;;;;;;4984930;28;20040;-60
2021/12/17 14:20:09;;;;;;;8.98;4.75;;;;;;;;;;4984787;28;20037;-60
2021/12/17 14:22:39;;;;;;;8.65;4.47;;;;;;;;;;4985969;28;20042;-59
2021/12/17 14:25:26;;;;;;;10.27;4.40;;;;;;;;;;4985744;28;20195;-59
2021/12/17 14:27:51;;;;;;;8.45;3.92;;;;;;;;;;4987119;28;20986;-59
2021/12/17 14:30:23;;;;;;;10.25;4.45;;;;;;;;;;4984909;28;20026;-60
2021/12/17 14:32:51;;;;;;;7.13;3.78;;;;;;;;;;4986253;28;20034;-59
2021/12/17 14:35:37;;;;;;;8.93;4.50;;;;;;;;;;4984574;28;20404;-58
2021/12/17 14:38:05;;;;;;;10.70;4.13;;;;;;;;;;4984175;28;20838;-58
2021/12/17 14:40:54;;;;;;;7.68;4.25;;;;;;;;;;4985439;28;20022;-59
2021/12/17 14:43:45;;;;;;;8.35;4.43;;;;;;;;;;4984036;28;21921;-59
2021/12/17 14:46:17;;;;;;;7.57;4.32;;;;;;;;;;4983310;28;20042;-59
2021/12/17 15:04:47;;;;;;;9.38;4.88;;;;;;;;;;4987721;28;20504;-59
2021/12/17 15:07:12;;;;;;;9.60;4.78;;;;;;;;;;4971943;28;20037;-58
2021/12/17 15:09:43;;;;;;;9.98;4.85;;;;;;;;;;4988885;28;20165;-59
2021/12/17 15:14:50;;;;;;;9.25;4.75;;;;;;;;;;4987498;28;20034;-59
2021/12/17 15:17:20;;;;;;;9.55;4.60;;;;;;;;;;4988426;28;20145;-59
2021/12/17 15:19:48;;;;;;;11.63;4.80;;;;;;;;;;4980916;28;20052;-59
2021/12/17 15:22:14;;;;;;;9.10;5.25;;;;;;;;;;4972270;28;20452;-59
2021/12/17 15:24:42;;;;;;;8.38;4.60;;;;;;;;;;4987828;28;20041;-59
2021/12/17 15:27:13;;;;;;;8.18;4.45;;;;;;;;;;4986862;28;20054;-59
2021/12/17 15:29:40;;;;;;;21.17;4.85;;;;;;;;;;4987854;28;20034;-60
2021/12/17 15:32:08;;;;;;;13.63;5.57;;;;;;;;;;4987372;28;20419;-59
2021/12/17 15:34:34;;;;;;;11.75;5.70;;;;;;;;;;4988354;28;20030;-59
2021/12/17 15:37:02;;;;;;;11.13;5.50;;;;;;;;;;4986108;28;20026;-59
2021/12/17 15:39:28;;;;;;;12.10;5.80;;;;;;;;;;4971436;28;20041;-59
2021/12/17 15:41:56;;;;;;;13.02;5.55;;;;;;;;;;4979727;28;20026;-59
2021/12/17 15:44:23;;;;;;;11.02;5.70;;;;;;;;;;4984127;28;20092;-59
2021/12/17 15:46:52;;;;;;;12.88;6.20;;;;;;;;;;4988659;28;20033;-60
2021/12/17 15:49:18;;;;;;;14.07;5.82;;;;;;;;;;4987487;28;20037;-58
2021/12/17 15:51:46;;;;;;;11.18;5.57;;;;;;;;;;4987569;28;20385;-59
2021/12/17 15:54:14;;;;;;;12.50;5.22;;;;;;;;;;4988720;28;20905;-59
2021/12/17 15:56:43;;;;;;;27.33;6.40;;;;;;;;;;4982685;28;20137;-60
2021/12/17 15:59:08;;;;;;;13.82;6.30;;;;;;;;;;4986238;28;20060;-60
2021/12/17 16:01:36;;;;;;;20.15;6.57;;;;;;;;;;4984112;28;20037;-61
2021/12/17 16:04:02;;;;;;;16.30;6.10;;;;;;;;;;4960752;28;20042;-60
2021/12/17 16:06:29;;;;;;;23.63;5.85;;;;;;;;;;4985131;28;20481;-58
2021/12/17 16:09:00;;;;;;;26.73;6.30;;;;;;;;;;4970484;28;20050;-59
2021/12/17 16:21:39;;;;;;;23.02;7.00;;;;;;;;;;4984838;28;20030;-59
2021/12/17 16:24:04;;;;;;;29.27;7.53;;;;;;;;;;5002223;28;20034;-59
2021/12/17 16:26:31;;;;;;;24.90;6.97;;;;;;;;;;4986403;28;20041;-59
2021/12/17 16:28:59;;;;;;;18.00;6.88;;;;;;;;;;4985770;28;20025;-60
2021/12/17 16:31:29;;;;;;;20.52;7.10;;;;;;;;;;4985122;28;20037;-59
2021/12/17 16:33:58;;;;;;;27.90;6.50;;;;;;;;;;4977179;28;20034;-59
2021/12/17 16:36:23;;;;;;;23.17;6.68;;;;;;;;;;4973768;28;20535;-59
2021/12/17 16:38:52;;;;;;;18.95;6.55;;;;;;;;;;4983412;28;20041;-59
2021/12/17 16:41:19;;;;;;;24.10;6.40;;;;;;;;;;4985969;28;20087;-58
2021/12/17 16:43:46;;;;;;;22.25;5.93;;;;;;;;;;5001780;28;20082;-59
2021/12/17 16:48:44;;;;;;;22.10;5.30;;;;;;;;;;4985431;28;20081;-59
2021/12/17 16:51:11;;;;;;;20.25;4.45;;;;;;;;;;4989027;28;20025;-59
2021/12/17 16:53:36;;;;;;;13.45;4.53;;;;;;;;;;5004002;28;20033;-59
2021/12/17 16:56:05;;;;;;;13.15;4.43;;;;;;;;;;4987790;28;20038;-62
2021/12/17 16:58:31;;;;;;;15.48;5.00;;;;;;;;;;4984238;28;20152;-59
2021/12/17 17:00:57;;;;;;;12.77;4.43;;;;;;;;;;4988313;28;20060;-59
2021/12/17 17:03:25;;;;;;;10.80;4.32;;;;;;;;;;4986234;28;20593;-59
2021/12/17 17:05:52;;;;;;;11.10;4.07;;;;;;;;;;4987300;28;20038;-58
2021/12/17 17:08:20;;;;;;;14.65;4.43;;;;;;;;;;4984967;28;22011;-58
2021/12/17 17:10:52;;;;;;;11.35;4.13;;;;;;;;;;4982971;28;20026;-60
2021/12/17 17:13:19;;;;;;;12.45;3.60;;;;;;;;;;4987037;28;20668;-58
2021/12/17 17:15:44;;;;;;;10.50;2.85;;;;;;;;;;4986874;28;20029;-58
2021/12/17 17:18:10;;;;;;;10.30;2.17;;;;;;;;;;4985899;28;20038;-59
2021/12/17 17:20:35;;;;;;;5.13;2.22;;;;;;;;;;4987272;28;20042;-59
2021/12/17 17:23:02;;;;;;;6.97;3.10;;;;;;;;;;4985354;28;20061;-59
2021/12/17 17:25:32;;;;;;;8.40;3.08;;;;;;;;;;4977659;28;20030;-59
2021/12/17 17:28:00;;;;;;;6.32;2.58;;;;;;;;;;4986528;28;20248;-60
2021/12/17 17:30:27;;;;;;;5.88;2.33;;;;;;;;;;4984672;28;20030;-58
2021/12/17 17:32:55;;;;;;;5.45;2.35;;;;;;;;;;5002002;28;20030;-60
2021/12/17 17:35:23;;;;;;;3.90;1.75;;;;;;;;;;4985191;28;20037;-58
2021/12/17 17:37:48;;;;;;;2.75;1.48;;;;;;;;;;4987740;28;20064;-59
2021/12/17 17:40:14;;;;;;;9.90;4.68;;;;;;;;;;4985433;28;20117;-59
2021/12/17 17:42:39;;;;;;;7.78;3.90;;;;;;;;;;4985390;28;20037;-59
2021/12/17 17:45:05;;;;;;;8.52;3.45;;;;;;;;;;4985032;28;20701;-60
2021/12/17 17:47:34;;;;;;;13.73;2.83;;;;;;;;;;4984759;28;20038;-59
2021/12/17 17:50:02;;;;;;;7.53;2.95;;;;;;;;;;4982956;28;20026;-58
2021/12/17 17:52:28;;;;;;;6.32;2.70;;;;;;;;;;4987859;28;20068;-59
2021/12/17 17:54:58;;;;;;;7.20;2.78;;;;;;;;;;4983820;28;20026;-59
2021/12/17 17:57:28;;;;;;;8.95;2.63;;;;;;;;;;4999851;28;20521;-59
2021/12/17 17:59:57;;;;;;;9.93;2.90;;;;;;;;;;4978261;28;20034;-59
2021/12/17 18:02:26;;;;;;;10.30;3.05;;;;;;;;;;4984696;28;21039;-59
2021/12/17 18:04:52;;;;;;;3.75;1.63;;;;;;;;;;4982429;28;20048;-59
2021/12/17 18:07:17;;;;;;;10.50;2.63;;;;;;;;;;4986814;28;20026;-60
2021/12/17 18:09:44;;;;;;;11.48;2.90;;;;;;;;;;4985734;28;20045;-60
2021/12/17 18:12:10;;;;;;;9.13;3.22;;;;;;;;;;4984695;28;20037;-59
2021/12/17 18:14:39;;;;;;;11.80;3.60;;;;;;;;;;4984333;28;20339;-59
2021/12/17 18:17:07;;;;;;;12.93;3.20;;;;;;;;;;4985769;28;20154;-59
2021/12/17 18:19:39;;;;;;;12.45;2.83;;;;;;;;;;4985475;28;20571;-60
2021/12/17 18:22:06;;;;;;;10.02;3.08;;;;;;;;;;4951399;28;20623;-59
2021/12/17 18:24:35;;;;;;;9.15;2.80;;;;;;;;;;4985413;28;20044;-59
2021/12/17 18:27:02;;;;;;;7.07;1.77;;;;;;;;;;4982740;28;20038;-59
2021/12/17 18:29:27;;;;;;;10.23;2.17;;;;;;;;;;4987065;28;20021;-60
2021/12/17 18:31:55;;;;;;;8.25;1.98;;;;;;;;;;4984616;28;21973;-59
2021/12/17 18:34:20;;;;;;;8.00;1.80;;;;;;;;;;4982299;28;20029;-60
2021/12/17 18:36:48;;;;;;;6.25;1.85;;;;;;;;;;4983446;28;20042;-58
2021/12/17 18:39:17;;;;;;;7.72;1.70;;;;;;;;;;4983995;28;20038;-60